Time;durP1;ratioP1;P1;durP2;ratioP2;P2;SDS_P1;SDS_P2;PMS_P1;PMS_P2;Temp;Humidity;BMP_temperature;BMP_pressure;BME280_temperature;BME280_humidity;BME280_pressure;Samples;Min_cycle;Max_cycle;Signal;HPM_P1;HPM_P2
2021/07/23 00:01:47;;;;;;;;;;;;;;;17.45;58.50;98922.58;1872552;76;20212;-62
2021/07/23 00:04:22;;;;;;;;;;;;;;;17.43;58.45;98931.31;1873433;76;20447;-64
2021/07/23 00:06:57;;;;;;;;;;;;;;;17.42;58.55;98930.91;1873365;76;20352;-63
2021/07/23 00:09:31;;;;;;;;;;;;;;;17.40;58.57;98932.68;1873446;76;20098;-62
2021/07/23 00:12:07;;;;;;;;;;;;;;;17.39;59.22;98933.58;1873426;76;20212;-62
2021/07/23 00:14:41;;;;;;;;;;;;;;;17.35;58.85;98933.64;1892732;76;20100;-62
2021/07/23 00:17:15;;;;;;;;;;;;;;;17.33;58.89;98937.16;1873425;76;20212;-62
2021/07/23 00:19:51;;;;;;;;;;;;;;;17.30;59.00;98935.47;1873244;76;20101;-63
2021/07/23 00:22:27;;;;;;;;;;;;;;;17.27;59.20;98932.03;1892813;76;20354;-61
2021/07/23 00:25:02;;;;;;;;;;;;;;;17.24;59.22;98933.39;1873441;76;20205;-62
2021/07/23 00:27:37;;;;;;;;;;;;;;;17.21;59.35;98935.61;1873403;76;20208;-62
2021/07/23 00:30:17;;;;;;;;;;;;;;;17.20;59.45;98931.70;1872665;76;20212;-61
2021/07/23 00:33:11;;;;;;;;;;;;;;;17.14;59.95;98936.14;1873417;76;20200;-61
2021/07/23 00:35:45;;;;;;;;;;;;;;;17.08;60.00;98934.94;1873425;76;20204;-62
2021/07/23 00:38:19;;;;;;;;;;;;;;;17.04;60.23;98935.86;1873408;76;20208;-63
2021/07/23 00:40:54;;;;;;;;;;;;;;;17.00;60.56;98932.91;1873431;76;20209;-62
2021/07/23 00:43:29;;;;;;;;;;;;;;;16.97;60.51;98941.20;1873362;76;20208;-62
2021/07/23 00:46:04;;;;;;;;;;;;;;;16.93;60.73;98943.00;1873437;76;20352;-62
2021/07/23 00:48:38;;;;;;;;;;;;;;;16.89;60.95;98936.10;1873416;76;20212;-64
2021/07/23 00:51:13;;;;;;;;;;;;;;;16.84;61.32;98940.52;1873408;76;20204;-63
2021/07/23 00:53:49;;;;;;;;;;;;;;;16.79;61.83;98931.49;1893099;76;20203;-61
2021/07/23 00:56:26;;;;;;;;;;;;;;;16.72;61.97;98935.03;1873451;76;20212;-62
2021/07/23 00:59:20;;;;;;;;;;;;;;;16.65;62.83;98935.55;1837795;77;20457;-62
2021/07/23 01:01:54;;;;;;;;;;;;;;;16.59;63.33;98939.97;1892742;76;20204;-62
2021/07/23 01:04:35;;;;;;;;;;;;;;;16.51;63.42;98933.56;1872662;76;20216;-62
2021/07/23 01:07:29;;;;;;;;;;;;;;;16.46;63.68;98930.16;1873358;76;20212;-62
2021/07/23 01:10:23;;;;;;;;;;;;;;;16.41;63.80;98925.45;1892926;76;20441;-63
2021/07/23 01:13:19;;;;;;;;;;;;;;;16.37;63.84;98925.09;1873475;76;20164;-62
2021/07/23 01:15:54;;;;;;;;;;;;;;;16.35;64.19;98928.15;1873453;76;20097;-62
2021/07/23 01:18:29;;;;;;;;;;;;;;;16.31;64.13;98930.36;1873444;76;20212;-61
2021/07/23 01:21:06;;;;;;;;;;;;;;;16.23;65.47;98926.14;1892701;76;20101;-61
2021/07/23 01:23:42;;;;;;;;;;;;;;;16.13;65.97;98930.15;1873195;76;20101;-62
2021/07/23 01:26:17;;;;;;;;;;;;;;;16.03;66.12;98929.42;1873427;76;20204;-62
2021/07/23 01:28:52;;;;;;;;;;;;;;;16.00;66.11;98930.73;1873351;76;20379;-62
2021/07/23 01:31:28;;;;;;;;;;;;;;;15.97;66.20;98932.08;1873187;76;20098;-62
2021/07/23 01:34:02;;;;;;;;;;;;;;;15.95;66.21;98928.63;1873417;76;20204;-61
2021/07/23 01:36:37;;;;;;;;;;;;;;;15.93;65.70;98929.11;1873287;76;20204;-62
2021/07/23 01:39:14;;;;;;;;;;;;;;;15.95;65.65;98928.63;1873468;76;20097;-61
2021/07/23 01:41:50;;;;;;;;;;;;;;;15.95;66.38;98927.33;1873182;76;20177;-62
2021/07/23 01:44:24;;;;;;;;;;;;;;;15.88;66.21;98922.65;1873443;76;20212;-62
2021/07/23 01:46:59;;;;;;;;;;;;;;;15.83;66.46;98921.39;1873433;76;20204;-61
2021/07/23 01:49:33;;;;;;;;;;;;;;;15.80;66.64;98924.48;1873441;76;20204;-62
2021/07/23 01:52:08;;;;;;;;;;;;;;;15.77;66.72;98925.38;1873417;76;20201;-62
2021/07/23 01:54:43;;;;;;;;;;;;;;;15.78;66.72;98930.12;1873285;76;20164;-61
2021/07/23 01:57:18;;;;;;;;;;;;;;;15.73;67.65;98928.88;1873355;76;20204;-62
2021/07/23 01:59:55;;;;;;;;;;;;;;;15.63;68.06;98928.06;1873183;76;20094;-62
2021/07/23 02:02:29;;;;;;;;;;;;;;;15.53;68.87;98922.98;1873418;76;20204;-62
2021/07/23 02:05:25;;;;;;;;;;;;;;;15.39;69.30;98921.79;1873342;76;20102;-62
2021/07/23 02:08:18;;;;;;;;;;;;;;;15.31;69.93;98925.76;1873399;76;20208;-62
2021/07/23 02:11:01;;;;;;;;;;;;;;;15.24;70.34;98928.42;1892864;76;20116;-62
2021/07/23 02:13:36;;;;;;;;;;;;;;;15.22;70.41;98927.60;1873438;76;20094;-61
2021/07/23 02:16:11;;;;;;;;;;;;;;;15.19;70.68;98926.75;1873422;76;20344;-62
2021/07/23 02:19:06;;;;;;;;;;;;;;;15.16;70.93;98921.58;1873415;76;20205;-62
2021/07/23 02:21:41;;;;;;;;;;;;;;;15.18;70.58;98925.45;1873439;76;20348;-62
2021/07/23 02:24:16;;;;;;;;;;;;;;;15.22;70.04;98925.86;1892766;76;20342;-62
2021/07/23 02:26:53;;;;;;;;;;;;;;;15.28;69.50;98927.09;1873425;76;20212;-62
2021/07/23 02:29:27;;;;;;;;;;;;;;;15.33;69.21;98930.95;1892719;76;20207;-61
2021/07/23 02:32:07;;;;;;;;;;;;;;;15.37;69.01;98931.37;1892820;76;20212;-62
2021/07/23 02:35:02;;;;;;;;;;;;;;;15.39;68.70;98929.18;1873377;76;20208;-62
2021/07/23 02:38:00;;;;;;;;;;;;;;;15.43;68.60;98928.70;1873509;76;20098;-62
2021/07/23 02:40:35;;;;;;;;;;;;;;;15.47;68.39;98930.82;1873400;76;20208;-62
2021/07/23 02:43:09;;;;;;;;;;;;;;;15.49;69.28;98931.67;1873486;76;20348;-61
2021/07/23 02:45:44;;;;;;;;;;;;;;;15.48;70.10;98923.46;1892754;76;20096;-61
2021/07/23 02:48:19;;;;;;;;;;;;;;;15.40;70.40;98929.59;1873346;76;20098;-62
2021/07/23 02:50:55;;;;;;;;;;;;;;;15.36;69.65;98924.42;1873228;76;20097;-62
2021/07/23 02:53:30;;;;;;;;;;;;;;;15.36;70.25;98920.52;1892692;76;20203;-62
2021/07/23 02:56:07;;;;;;;;;;;;;;;15.30;70.84;98922.75;1873417;76;20216;-62
2021/07/23 02:58:42;;;;;;;;;;;;;;;15.27;71.26;98923.22;1873443;76;20450;-62
2021/07/23 03:01:18;;;;;;;;;;;;;;;15.24;71.55;98926.72;1873268;76;20147;-61
2021/07/23 03:03:54;;;;;;;;;;;;;;;15.25;71.46;98928.42;1892761;76;20139;-63
2021/07/23 03:06:34;;;;;;;;;;;;;;;15.26;71.45;98927.53;1872552;76;20208;-62
2021/07/23 03:09:09;;;;;;;;;;;;;;;15.29;71.31;98928.84;1873423;76;20200;-62
2021/07/23 03:11:43;;;;;;;;;;;;;;;15.33;71.37;98931.81;1837834;77;20211;-62
2021/07/23 03:14:17;;;;;;;;;;;;;;;15.36;71.12;98931.78;1873433;76;20228;-61
2021/07/23 03:16:52;;;;;;;;;;;;;;;15.47;70.69;98930.82;1892773;76;20203;-61
2021/07/23 03:19:27;;;;;;;;;;;;;;;15.55;70.36;98926.44;1873523;76;20093;-62
2021/07/23 03:22:01;;;;;;;;;;;;;;;15.64;70.44;98931.52;1873482;76;20204;-62
2021/07/23 03:24:36;;;;;;;;;;;;;;;15.69;69.98;98929.77;1892800;76;20207;-63
2021/07/23 03:27:31;;;;;;;;;;;;;;;15.77;69.99;98929.69;1873243;76;20102;-62
2021/07/23 03:30:07;;;;;;;;;;;;;;;15.81;69.60;98929.64;1873422;76;20212;-63
2021/07/23 03:32:42;;;;;;;;;;;;;;;15.84;69.08;98931.35;1873412;76;20093;-62
2021/07/23 03:35:18;;;;;;;;;;;;;;;15.90;68.70;98931.30;1873277;76;20600;-63
2021/07/23 03:37:52;;;;;;;;;;;;;;;15.97;68.65;98934.23;1873427;76;20212;-64
2021/07/23 03:40:27;;;;;;;;;;;;;;;16.02;68.62;98927.68;1873499;76;20093;-63
2021/07/23 03:43:02;;;;;;;;;;;;;;;16.06;68.29;98931.98;1873335;76;20208;-62
2021/07/23 03:45:36;;;;;;;;;;;;;;;16.09;67.94;98928.03;1873402;76;20352;-62
2021/07/23 03:48:11;;;;;;;;;;;;;;;16.16;67.63;98934.90;1873338;76;20097;-62
2021/07/23 03:50:48;;;;;;;;;;;;;;;16.25;67.93;98936.06;1873334;76;20451;-62
2021/07/23 03:53:42;;;;;;;;;;;;;;;16.34;66.91;98931.65;1892717;76;20093;-62
2021/07/23 03:56:17;;;;;;;;;;;;;;;16.44;66.28;98937.16;1892718;76;20215;-62
2021/07/23 03:58:54;;;;;;;;;;;;;;;16.54;66.19;98933.97;1873425;76;20307;-62
2021/07/23 04:01:30;;;;;;;;;;;;;;;16.62;66.18;98932.14;1892758;76;20097;-62
2021/07/23 04:04:26;;;;;;;;;;;;;;;16.77;65.97;98933.67;1873423;76;20494;-62
2021/07/23 04:07:01;;;;;;;;;;;;;;;16.88;65.28;98934.39;1873409;76;20466;-62
2021/07/23 04:09:35;;;;;;;;;;;;;;;16.97;63.95;98939.48;1873411;76;20348;-63
2021/07/23 04:12:10;;;;;;;;;;;;;;;17.04;63.70;98933.26;1873416;76;20208;-62
2021/07/23 04:14:44;;;;;;;;;;;;;;;17.10;62.97;98934.48;1873387;76;20344;-63
2021/07/23 04:17:39;;;;;;;;;;;;;;;17.17;62.49;98935.67;1873348;76;20347;-63
2021/07/23 04:20:16;;;;;;;;;;;;;;;17.24;62.43;98936.00;1873395;76;20454;-63
2021/07/23 04:22:51;;;;;;;;;;;;;;;17.32;61.65;98939.33;1873372;76;20462;-64
2021/07/23 04:25:25;;;;;;;;;;;;;;;17.41;61.70;98939.19;1873326;76;20347;-64
2021/07/23 04:28:01;;;;;;;;;;;;;;;17.46;61.39;98937.36;1873256;76;20098;-64
2021/07/23 04:30:36;;;;;;;;;;;;;;;17.53;61.14;98932.91;1873488;76;20208;-62
2021/07/23 04:33:10;;;;;;;;;;;;;;;17.55;60.86;98929.80;1873416;76;20212;-62
2021/07/23 04:35:48;;;;;;;;;;;;;;;17.57;60.90;98934.11;1873495;76;20093;-63
2021/07/23 04:38:24;;;;;;;;;;;;;;;17.68;60.87;98933.05;1873165;76;20097;-62
2021/07/23 04:40:58;;;;;;;;;;;;;;;17.78;60.75;98937.21;1892730;76;20207;-62
2021/07/23 04:43:33;;;;;;;;;;;;;;;17.89;60.56;98935.31;1873536;76;20094;-63
2021/07/23 04:46:08;;;;;;;;;;;;;;;18.02;60.84;98933.77;1892697;76;20097;-64
2021/07/23 04:49:03;;;;;;;;;;;;;;;18.13;60.48;98933.10;1892701;76;20096;-62
2021/07/23 04:51:38;;;;;;;;;;;;;;;18.20;60.23;98930.78;1873330;76;20208;-65
2021/07/23 04:54:13;;;;;;;;;;;;;;;18.33;60.18;98930.94;1873347;76;20098;-63
2021/07/23 04:56:51;;;;;;;;;;;;;;;18.41;60.02;98932.08;1873416;76;20097;-63
2021/07/23 04:59:24;;;;;;;;;;;;;;;18.49;59.44;98932.77;1873410;76;20347;-62
2021/07/23 05:02:19;;;;;;;;;;;;;;;18.59;59.26;98925.59;1873141;76;20098;-64
2021/07/23 05:04:54;;;;;;;;;;;;;;;18.66;58.51;98926.73;1873423;76;20212;-63
2021/07/23 05:07:34;;;;;;;;;;;;;;;18.70;58.39;98927.53;1872558;76;20204;-63
2021/07/23 05:10:11;;;;;;;;;;;;;;;18.72;58.26;98926.17;1892679;76;20097;-64
2021/07/23 05:12:52;;;;;;;;;;;;;;;18.75;57.81;98927.41;1892718;76;20457;-64
2021/07/23 05:15:26;;;;;;;;;;;;;;;18.77;57.55;98936.11;1873511;76;20212;-62
2021/07/23 05:18:03;;;;;;;;;;;;;;;18.79;57.77;98931.72;1873162;76;20102;-64
2021/07/23 05:20:57;;;;;;;;;;;;;;;18.94;58.24;98940.97;1886593;75;20235;-63
2021/07/23 05:23:35;;;;;;;;;;;;;;;19.06;58.30;98938.06;1873367;76;20303;-63
2021/07/23 05:26:28;;;;;;;;;;;;;;;19.18;58.18;98939.05;1892502;76;20462;-63
2021/07/23 05:29:21;;;;;;;;;;;;;;;19.34;57.72;98938.70;1892615;76;20207;-62
2021/07/23 05:31:57;;;;;;;;;;;;;;;19.49;57.24;98943.09;1873156;76;20098;-67
2021/07/23 05:34:32;;;;;;;;;;;;;;;19.64;56.80;98937.03;1892686;76;20172;-62
2021/07/23 05:37:07;;;;;;;;;;;;;;;19.78;56.46;98943.27;1892729;76;20093;-63
2021/07/23 05:39:42;;;;;;;;;;;;;;;19.92;56.08;98943.73;1892847;76;20093;-64
2021/07/23 05:42:17;;;;;;;;;;;;;;;20.08;55.91;98937.19;1873304;76;20098;-64
2021/07/23 05:44:58;;;;;;;;;;;;;;;20.34;55.67;98938.20;1892645;76;20092;-63
2021/07/23 05:47:34;;;;;;;;;;;;;;;21.10;53.86;98939.41;1892685;76;20191;-62
2021/07/23 05:50:11;;;;;;;;;;;;;;;22.91;50.31;98944.33;1873249;76;20208;-64
2021/07/23 05:53:12;;;;;;;;;;;;;;;25.33;44.09;98947.27;1872453;76;20102;-63
2021/07/23 05:55:47;;;;;;;;;;;;;;;27.03;41.37;98953.30;1873402;76;20351;-63
2021/07/23 05:58:21;;;;;;;;;;;;;;;28.70;38.97;98956.20;1876912;76;20113;-63
2021/07/23 06:01:05;;;;;;;;;;;;;;;30.29;34.41;98971.36;1867801;76;20384;-63
2021/07/23 06:03:40;;;;;;;;;;;;;;;31.12;33.89;98967.62;1857580;76;20278;-64
2021/07/23 06:06:15;;;;;;;;;;;;;;;32.21;31.85;98975.42;1857131;76;20113;-64
2021/07/23 06:09:10;;;;;;;;;;;;;;;33.10;30.41;98986.67;1853902;76;20117;-63
2021/07/23 06:11:44;;;;;;;;;;;;;;;33.85;29.19;98996.00;1840730;76;20522;-65
2021/07/23 06:14:25;;;;;;;;;;;;;;;34.39;27.88;98999.94;1854075;76;20321;-62
2021/07/23 06:17:05;;;;;;;;;;;;;;;34.62;27.65;98995.27;1858709;76;20164;-63
2021/07/23 06:19:41;;;;;;;;;;;;;;;35.37;26.59;99003.31;1854424;76;20378;-63
2021/07/23 06:22:41;;;;;;;;;;;;;;;36.04;25.36;99005.61;1851321;76;20120;-63
2021/07/23 06:25:16;;;;;;;;;;;;;;;36.17;24.74;99005.33;1873159;76;20229;-63
2021/07/23 06:27:56;;;;;;;;;;;;;;;35.80;25.13;99006.05;1858589;76;20113;-63
2021/07/23 06:30:31;;;;;;;;;;;;;;;35.57;25.19;99010.37;1861275;76;20375;-65
2021/07/23 06:33:12;;;;;;;;;;;;;;;35.48;25.19;99010.37;1850465;76;20470;-64
2021/07/23 06:36:07;;;;;;;;;;;;;;;35.67;24.87;99010.87;1873136;76;20097;-63
2021/07/23 06:38:42;;;;;;;;;;;;;;;35.91;24.23;99005.92;1892712;76;20235;-63
2021/07/23 06:41:16;;;;;;;;;;;;;;;35.79;24.25;99003.03;1873323;76;20467;-63
2021/07/23 06:43:51;;;;;;;;;;;;;;;35.90;24.67;99002.89;1892792;76;20093;-66
2021/07/23 06:46:31;;;;;;;;;;;;;;;35.61;23.80;99001.06;1872543;76;20458;-64
2021/07/23 06:49:06;;;;;;;;;;;;;;;35.38;23.91;99002.31;1892713;76;20342;-64
2021/07/23 06:51:41;;;;;;;;;;;;;;;35.21;24.32;98998.00;1873314;76;20097;-63
2021/07/23 06:54:15;;;;;;;;;;;;;;;35.15;24.35;98998.54;1892670;76;20366;-63
2021/07/23 06:56:56;;;;;;;;;;;;;;;35.00;24.60;98999.39;1872186;76;20225;-63
2021/07/23 06:59:34;;;;;;;;;;;;;;;35.35;24.58;99000.75;1873353;76;20212;-62
2021/07/23 07:02:09;;;;;;;;;;;;;;;36.15;23.77;98998.74;1892650;76;20207;-64
2021/07/23 07:04:44;;;;;;;;;;;;;;;37.17;22.60;98995.70;1873371;76;20247;-63
2021/07/23 07:07:19;;;;;;;;;;;;;;;37.69;21.90;99000.77;1892693;76;20212;-63
2021/07/23 07:09:53;;;;;;;;;;;;;;;38.09;21.09;99007.52;1873370;76;20348;-64
2021/07/23 07:12:27;;;;;;;;;;;;;;;38.24;21.00;99010.44;1837764;77;20215;-63
2021/07/23 07:15:03;;;;;;;;;;;;;;;38.70;20.85;99015.59;1892684;76;20203;-64
2021/07/23 07:18:03;;;;;;;;;;;;;;;38.59;20.47;99005.44;1872446;76;20466;-63
2021/07/23 07:21:05;;;;;;;;;;;;;;;38.53;20.93;99002.05;1872546;76;20204;-64
2021/07/23 07:24:00;;;;;;;;;;;;;;;38.77;20.50;99011.25;1873370;76;20205;-65
2021/07/23 07:27:00;;;;;;;;;;;;;;;38.90;20.60;99004.91;1872516;76;20208;-64
2021/07/23 07:29:36;;;;;;;;;;;;;;;39.09;20.04;99005.16;1873463;76;20208;-62
2021/07/23 07:32:10;;;;;;;;;;;;;;;38.91;19.87;99009.83;1873448;76;20208;-64
2021/07/23 07:34:45;;;;;;;;;;;;;;;38.98;19.90;98994.17;1873310;76;20144;-63
2021/07/23 07:37:19;;;;;;;;;;;;;;;38.09;20.43;99003.95;1873454;76;20204;-65
2021/07/23 07:39:54;;;;;;;;;;;;;;;37.36;21.38;99003.14;1873410;76;20212;-64
2021/07/23 07:42:30;;;;;;;;;;;;;;;37.64;21.21;99008.48;1873375;76;20098;-64
2021/07/23 07:45:05;;;;;;;;;;;;;;;37.50;21.30;99001.73;1873330;76;20356;-64
2021/07/23 07:47:40;;;;;;;;;;;;;;;37.02;21.02;99010.14;1892682;76;20097;-64
2021/07/23 07:50:15;;;;;;;;;;;;;;;36.92;20.83;99004.34;1873365;76;20098;-64
2021/07/23 07:52:55;;;;;;;;;;;;;;;37.12;20.93;99000.19;1872590;76;20204;-62
2021/07/23 07:55:36;;;;;;;;;;;;;;;37.35;20.63;99000.11;1892646;76;20093;-63
2021/07/23 07:58:10;;;;;;;;;;;;;;;36.69;20.94;98999.02;1873377;76;20340;-63
2021/07/23 08:00:44;;;;;;;;;;;;;;;36.32;21.42;98987.74;1892746;76;20208;-64
2021/07/23 08:03:19;;;;;;;;;;;;;;;36.04;22.01;98995.70;1892662;76;20211;-64
2021/07/23 08:06:00;;;;;;;;;;;;;;;35.88;22.07;98995.97;1873521;76;20093;-63
2021/07/23 08:08:50;;;;;;;;;;;;;;;36.17;22.05;98986.52;1873318;76;20355;-62
2021/07/23 08:11:24;;;;;;;;;;;;;;;36.29;21.79;98998.80;1873392;76;20205;-65
2021/07/23 08:14:19;;;;;;;;;;;;;;;36.29;21.68;98996.10;1873337;76;20208;-64
2021/07/23 08:16:53;;;;;;;;;;;;;;;36.33;21.58;99002.02;1873345;76;20371;-63
2021/07/23 08:19:28;;;;;;;;;;;;;;;35.91;21.72;99003.73;1873346;76;20101;-62
2021/07/23 08:22:03;;;;;;;;;;;;;;;35.86;21.75;98997.45;1890607;76;20104;-64
2021/07/23 08:24:38;;;;;;;;;;;;;;;35.69;21.69;98999.01;1861327;76;20107;-64
2021/07/23 08:27:31;;;;;;;;;;;;;;;35.54;22.22;98999.89;1864099;76;20220;-64
2021/07/23 08:30:07;;;;;;;;;;;;;;;35.55;22.26;98990.88;1836692;77;20211;-63
2021/07/23 08:32:45;;;;;;;;;;;;;;;35.57;22.22;98996.95;1852527;76;20245;-64
2021/07/23 08:35:19;;;;;;;;;;;;;;;35.29;22.44;98996.43;1873344;76;20207;-62
2021/07/23 08:38:13;;;;;;;;;;;;;;;35.30;22.21;98999.48;1872751;76;20212;-65
2021/07/23 08:41:12;;;;;;;;;;;;;;;35.50;22.33;99001.19;1868106;76;20230;-64
2021/07/23 08:43:47;;;;;;;;;;;;;;;35.68;22.33;98993.80;1876169;76;20360;-65
2021/07/23 08:46:41;;;;;;;;;;;;;;;35.13;22.33;99000.50;1855864;76;20124;-63
2021/07/23 08:49:34;;;;;;;;;;;;;;;34.17;23.78;98992.44;1853160;76;20117;-63
2021/07/23 08:52:09;;;;;;;;;;;;;;;33.76;23.86;98982.05;1852878;76;20277;-67
2021/07/23 08:54:44;;;;;;;;;;;;;;;33.29;24.54;98985.53;1842164;76;20129;-65
2021/07/23 08:57:26;;;;;;;;;;;;;;;33.36;24.28;98987.22;1873002;76;20117;-63
2021/07/23 09:00:07;;;;;;;;;;;;;;;33.57;24.39;98985.45;1864999;76;20118;-65
2021/07/23 09:02:54;;;;;;;;;;;;;;;33.97;24.05;98983.88;1856895;76;20481;-63
2021/07/23 09:05:40;;;;;;;;;;;;;;;33.50;24.16;98982.39;1843342;76;20192;-63
2021/07/23 09:08:19;;;;;;;;;;;;;;;33.31;24.77;98977.39;1869064;76;20224;-64
2021/07/23 09:11:13;;;;;;;;;;;;;;;33.33;24.17;98974.95;1868183;76;20285;-65
2021/07/23 09:13:47;;;;;;;;;;;;;;;33.69;24.40;98978.22;1854362;76;20409;-63
2021/07/23 09:16:25;;;;;;;;;;;;;;;33.85;23.76;98983.95;1858201;76;20119;-63
2021/07/23 09:19:06;;;;;;;;;;;;;;;33.14;24.64;98969.41;1892659;76;20092;-63
2021/07/23 09:21:40;;;;;;;;;;;;;;;32.19;26.16;98966.67;1880267;76;20225;-64
2021/07/23 09:24:49;;;;;;;;;;;;;;;31.67;26.88;98963.14;1862979;76;20144;-63
2021/07/23 09:27:34;;;;;;;;;;;;;;;31.77;26.65;98961.46;1866761;76;20216;-65
2021/07/23 09:30:10;;;;;;;;;;;;;;;31.45;26.66;98953.27;1892678;76;20093;-63
2021/07/23 09:33:05;;;;;;;;;;;;;;;30.68;28.04;98941.52;1858177;76;20109;-63
2021/07/23 09:35:57;;;;;;;;;;;;;;;29.44;29.92;98942.99;1872417;76;20102;-64
2021/07/23 09:38:37;;;;;;;;;;;;;;;28.35;31.45;98944.18;1873452;76;20216;-64
2021/07/23 09:41:32;;;;;;;;;;;;;;;27.80;32.44;98938.24;1879443;76;20111;-64
2021/07/23 09:44:26;;;;;;;;;;;;;;;27.41;32.75;98930.88;1857868;76;20212;-62
2021/07/23 09:47:01;;;;;;;;;;;;;;;27.13;33.70;98934.24;1853959;76;20112;-63
2021/07/23 09:49:38;;;;;;;;;;;;;;;26.62;34.30;98919.41;1865354;76;20355;-63
2021/07/23 09:52:33;;;;;;;;;;;;;;;26.24;35.35;98925.92;1873327;76;20102;-64
2021/07/23 09:55:27;;;;;;;;;;;;;;;26.14;35.41;98928.20;1852817;76;20117;-63
2021/07/23 09:58:04;;;;;;;;;;;;;;;26.22;35.52;98927.79;1855472;76;20277;-63
2021/07/23 10:01:03;;;;;;;;;;;;;;;26.19;35.50;98918.23;1862729;76;20119;-64
2021/07/23 10:04:01;;;;;;;;;;;;;;;26.05;36.11;98907.05;1839977;76;20377;-63
2021/07/23 10:07:12;;;;;;;;;;;;;;;25.96;37.02;98911.05;1842708;76;20368;-64
2021/07/23 10:09:50;;;;;;;;;;;;;;;26.05;37.36;98903.55;1864990;76;20355;-63
2021/07/23 10:12:32;;;;;;;;;;;;;;;26.11;37.27;98901.45;1877560;76;20134;-63
2021/07/23 10:15:27;;;;;;;;;;;;;;;26.10;36.15;98906.33;1832507;76;20121;-64
2021/07/23 10:18:21;;;;;;;;;;;;;;;26.29;36.37;98906.21;1860474;76;20460;-63
2021/07/23 10:21:03;;;;;;;;;;;;;;;26.55;36.16;98900.83;1870172;76;20381;-65
2021/07/23 10:23:57;;;;;;;;;;;;;;;26.64;36.60;98899.48;1870413;76;20212;-64
2021/07/23 10:26:51;;;;;;;;;;;;;;;26.77;36.29;98902.30;1873378;76;20208;-63
2021/07/23 10:29:49;;;;;;;;;;;;;;;26.80;35.52;98887.55;1873362;76;20093;-63
2021/07/23 10:32:32;;;;;;;;;;;;;;;26.57;35.25;98898.96;1873383;76;20208;-64
2021/07/23 10:35:45;;;;;;;;;;;;;;;26.21;35.52;98899.17;1869893;75;20133;-65
2021/07/23 10:38:29;;;;;;;;;;;;;;;26.14;36.90;98897.31;1873037;76;20423;-63
2021/07/23 10:41:11;;;;;;;;;;;;;;;26.22;36.29;98893.40;1873126;76;20097;-63
2021/07/23 10:44:12;;;;;;;;;;;;;;;26.37;35.84;98885.47;1853516;77;20103;-64
2021/07/23 10:47:14;;;;;;;;;;;;;;;26.56;36.51;98888.00;1872555;76;20306;-64
2021/07/23 10:50:16;;;;;;;;;;;;;;;26.83;35.79;98882.92;1872475;76;20098;-64
2021/07/23 10:53:31;;;;;;;;;;;;;;;26.73;35.25;98888.83;1873457;76;20204;-64
2021/07/23 10:56:14;;;;;;;;;;;;;;;26.66;35.57;98888.79;1873216;76;20474;-63
2021/07/23 10:58:50;;;;;;;;;;;;;;;26.63;36.47;98878.75;1892816;76;20096;-63
2021/07/23 11:01:34;;;;;;;;;;;;;;;26.81;35.91;98881.30;1873329;76;20093;-63
2021/07/23 11:04:28;;;;;;;;;;;;;;;26.85;35.35;98876.23;1892648;76;20096;-64
2021/07/23 11:07:04;;;;;;;;;;;;;;;26.78;35.71;98872.22;1873285;76;20094;-64
2021/07/23 11:09:58;;;;;;;;;;;;;;;26.70;36.00;98869.16;1892655;76;20208;-64
2021/07/23 11:12:40;;;;;;;;;;;;;;;26.70;35.76;98861.22;1892700;76;20208;-63
2021/07/23 11:15:16;;;;;;;;;;;;;;;26.69;36.43;98859.48;1873175;76;20097;-64
2021/07/23 11:18:18;;;;;;;;;;;;;;;26.81;36.10;98853.02;1873323;76;20208;-63
2021/07/23 11:20:55;;;;;;;;;;;;;;;26.65;35.60;98864.59;1892719;76;20347;-62
2021/07/23 11:23:31;;;;;;;;;;;;;;;26.42;35.87;98860.09;1892674;76;20097;-62
2021/07/23 11:26:06;;;;;;;;;;;;;;;26.44;36.06;98864.83;1873400;76;20094;-63
2021/07/23 11:28:47;;;;;;;;;;;;;;;26.73;35.81;98855.73;1873406;76;20093;-64
2021/07/23 11:31:43;;;;;;;;;;;;;;;27.20;34.99;98856.15;1873275;76;20101;-64
2021/07/23 11:34:26;;;;;;;;;;;;;;;27.33;34.63;98852.30;1892715;76;20342;-66
2021/07/23 11:37:02;;;;;;;;;;;;;;;27.34;35.24;98853.52;1873408;76;20208;-63
2021/07/23 11:40:02;;;;;;;;;;;;;;;27.54;34.77;98851.48;1873396;76;20212;-64
2021/07/23 11:42:38;;;;;;;;;;;;;;;27.67;35.05;98852.43;1892667;76;20442;-64
2021/07/23 11:45:13;;;;;;;;;;;;;;;27.81;34.79;98849.83;1892723;76;20093;-64
2021/07/23 11:48:13;;;;;;;;;;;;;;;27.57;34.82;98854.78;1872461;76;20208;-63
2021/07/23 11:50:55;;;;;;;;;;;;;;;27.26;35.03;98846.02;1873389;76;20204;-64
2021/07/23 11:53:32;;;;;;;;;;;;;;;27.06;34.89;98848.96;1873322;76;20343;-63
2021/07/23 11:56:29;;;;;;;;;;;;;;;26.77;35.32;98851.98;1873495;76;20208;-65
2021/07/23 11:59:04;;;;;;;;;;;;;;;26.69;35.24;98847.58;1873224;76;20106;-65
2021/07/23 12:01:40;;;;;;;;;;;;;;;26.83;35.03;98845.00;1892796;76;20277;-63
2021/07/23 12:04:15;;;;;;;;;;;;;;;26.98;35.60;98841.47;1892671;76;20101;-63
2021/07/23 12:06:52;;;;;;;;;;;;;;;27.11;35.79;98839.42;1892677;76;20097;-63
2021/07/23 12:09:47;;;;;;;;;;;;;;;27.21;34.93;98836.65;1873356;76;20204;-65
2021/07/23 12:12:22;;;;;;;;;;;;;;;27.01;35.25;98830.69;1892697;76;20216;-64
2021/07/23 12:15:11;;;;;;;;;;;;;;;26.81;35.25;98838.94;1866705;76;20163;-63
2021/07/23 12:17:48;;;;;;;;;;;;;;;26.84;35.50;98837.43;1863574;76;20212;-64
2021/07/23 12:20:27;;;;;;;;;;;;;;;27.09;35.67;98828.06;1856990;76;20329;-63
2021/07/23 12:23:01;;;;;;;;;;;;;;;27.44;34.90;98832.14;1873602;76;20093;-65
2021/07/23 12:28:21;;;;;;;;;;;;;;;27.66;34.22;98838.33;1853121;76;20116;-63
2021/07/23 12:31:22;;;;;;;;;;;;;;;27.17;34.48;98831.11;1857227;76;20113;-62
2021/07/23 12:34:05;;;;;;;;;;;;;;;26.81;35.50;98829.67;1868825;76;20126;-64
2021/07/23 12:36:51;;;;;;;;;;;;;;;26.83;35.08;98833.09;1837628;76;20117;-65
2021/07/23 12:39:27;;;;;;;;;;;;;;;27.00;35.35;98829.47;1873425;76;20238;-63
2021/07/23 12:42:19;;;;;;;;;;;;;;;27.22;35.00;98832.59;1892639;76;20121;-63
2021/07/23 12:44:54;;;;;;;;;;;;;;;27.53;34.29;98832.08;1862791;76;20213;-62
2021/07/23 12:47:36;;;;;;;;;;;;;;;27.72;34.33;98825.16;1872565;76;20208;-63
2021/07/23 12:50:14;;;;;;;;;;;;;;;27.80;34.12;98821.55;1858160;76;20116;-64
2021/07/23 12:53:15;;;;;;;;;;;;;;;27.76;33.99;98820.50;1892744;76;20101;-65
2021/07/23 12:55:59;;;;;;;;;;;;;;;27.89;33.30;98810.41;1872503;76;20359;-64
2021/07/23 12:58:46;;;;;;;;;;;;;;;28.08;33.30;98813.23;1892918;76;20203;-63
2021/07/23 13:01:40;;;;;;;;;;;;;;;28.35;33.30;98816.77;1873441;76;20093;-64
2021/07/23 13:04:34;;;;;;;;;;;;;;;28.46;33.01;98808.62;1873456;76;20205;-62
2021/07/23 13:07:27;;;;;;;;;;;;;;;28.35;32.64;98803.50;1892778;76;20346;-62
2021/07/23 13:10:22;;;;;;;;;;;;;;;28.28;32.80;98822.58;1870485;76;20352;-64
2021/07/23 13:13:15;;;;;;;;;;;;;;;28.25;32.97;98818.31;1854941;76;20222;-63
2021/07/23 13:15:55;;;;;;;;;;;;;;;28.18;33.06;98819.66;1870118;76;20216;-64
2021/07/23 13:18:30;;;;;;;;;;;;;;;27.86;33.38;98813.72;1865240;76;20223;-63
2021/07/23 13:21:05;;;;;;;;;;;;;;;27.53;34.07;98817.94;1838846;76;20168;-64
2021/07/23 13:23:40;;;;;;;;;;;;;;;27.30;34.19;98816.23;1847316;76;20113;-62
2021/07/23 13:26:14;;;;;;;;;;;;;;;27.36;34.33;98807.91;1851170;76;20284;-64
2021/07/23 13:28:49;;;;;;;;;;;;;;;27.56;34.38;98805.85;1870140;76;20370;-63
2021/07/23 13:31:25;;;;;;;;;;;;;;;27.78;33.86;98807.53;1850714;76;20168;-65
2021/07/23 13:34:05;;;;;;;;;;;;;;;27.91;34.23;98813.83;1865681;76;20117;-65
2021/07/23 13:37:09;;;;;;;;;;;;;;;28.02;33.33;98810.98;1846197;76;20168;-63
2021/07/23 13:40:10;;;;;;;;;;;;;;;27.79;33.59;98806.60;1880654;76;20325;-65
2021/07/23 13:43:04;;;;;;;;;;;;;;;27.42;34.22;98815.47;1865923;76;20578;-64
2021/07/23 13:45:58;;;;;;;;;;;;;;;27.19;34.56;98810.23;1846464;76;20129;-64
2021/07/23 13:48:51;;;;;;;;;;;;;;;27.00;34.94;98809.12;1851553;76;20366;-64
2021/07/23 13:51:46;;;;;;;;;;;;;;;26.86;35.39;98809.08;1831651;76;20113;-64
2021/07/23 13:54:20;;;;;;;;;;;;;;;26.82;36.03;98815.51;1859210;76;20229;-64
2021/07/23 13:57:01;;;;;;;;;;;;;;;26.73;36.71;98811.58;1892673;76;20346;-63
2021/07/23 13:59:35;;;;;;;;;;;;;;;26.69;37.12;98814.48;1892655;76;20183;-64
2021/07/23 14:02:10;;;;;;;;;;;;;;;26.73;37.02;98808.09;1873348;76;20097;-64
2021/07/23 14:04:48;;;;;;;;;;;;;;;26.80;36.12;98809.44;1892834;76;20092;-63